Time;durP1;ratioP1;P1;durP2;ratioP2;P2;SDS_P1;SDS_P2;PMS_P1;PMS_P2;Temp;Humidity;BMP_temperature;BMP_pressure;BME280_temperature;BME280_humidity;BME280_pressure;Samples;Min_cycle;Max_cycle;Signal;HPM_P1;HPM_P2
2023/01/22 00:00:29;;;;;;;8.40;4.63;;;;;;;6.97;77.78;93722.78;5001685;28;20025;-83
2023/01/22 00:02:54;;;;;;;14.38;6.35;;;;;;;6.97;78.03;93730.75;5003783;28;20022;-83
2023/01/22 00:05:20;;;;;;;11.27;6.15;;;;;;;6.95;78.48;93745.38;5003968;28;20059;-86
2023/01/22 00:07:45;;;;;;;13.05;6.68;;;;;;;6.92;79.00;93752.06;5001897;28;20022;-85
2023/01/22 00:10:11;;;;;;;13.00;6.68;;;;;;;6.91;79.50;93753.13;5003535;28;20032;-84
2023/01/22 00:12:37;;;;;;;16.77;7.07;;;;;;;6.96;79.45;93757.53;5003641;28;20068;-85
2023/01/22 00:15:03;;;;;;;14.90;8.10;;;;;;;7.00;79.60;93755.88;5002581;28;20026;-85
2023/01/22 00:17:29;;;;;;;14.18;8.23;;;;;;;7.02;79.68;93751.88;5003697;28;20074;-85
2023/01/22 00:19:55;;;;;;;13.85;6.72;;;;;;;7.09;79.79;93756.00;5003697;28;20307;-85
2023/01/22 00:22:20;;;;;;;13.73;8.07;;;;;;;7.12;79.78;93755.41;5003684;28;20029;-85
2023/01/22 00:24:46;;;;;;;17.10;8.50;;;;;;;7.14;80.03;93747.94;5003359;28;20064;-85
2023/01/22 00:27:11;;;;;;;18.40;8.77;;;;;;;7.19;80.21;93745.19;5003700;28;20030;-87
2023/01/22 00:29:37;;;;;;;16.60;8.32;;;;;;;7.20;80.04;93747.53;5003790;28;20391;-88
2023/01/22 00:32:02;;;;;;;17.33;8.60;;;;;;;7.22;80.26;93747.25;5003957;28;20026;-87
2023/01/22 00:34:28;;;;;;;14.43;6.85;;;;;;;7.24;80.18;93742.44;5003917;28;20041;-87
2023/01/22 00:36:54;;;;;;;12.43;6.90;;;;;;;7.26;80.16;93745.59;5003402;28;20042;-84
2023/01/22 00:39:19;;;;;;;16.20;5.88;;;;;;;7.28;79.98;93748.72;5002292;28;20025;-84
2023/01/22 00:41:45;;;;;;;10.35;5.28;;;;;;;7.26;79.79;93742.94;5002256;28;20101;-84
2023/01/22 00:44:10;;;;;;;9.23;4.93;;;;;;;7.26;79.46;93745.59;5002274;28;20032;-84
2023/01/22 00:46:36;;;;;;;12.68;6.47;;;;;;;7.29;79.54;93750.31;5003369;28;20026;-84
2023/01/22 00:49:02;;;;;;;13.27;5.93;;;;;;;7.28;79.53;93756.69;5003368;28;20077;-84
2023/01/22 00:51:28;;;;;;;9.02;5.22;;;;;;;7.29;79.33;93757.47;5002951;28;20053;-85
2023/01/22 00:53:54;;;;;;;13.57;5.00;;;;;;;7.23;79.36;93760.22;5003026;28;20105;-85
2023/01/22 00:56:20;;;;;;;6.80;3.55;;;;;;;7.22;79.35;93757.84;5003453;28;20038;-84
2023/01/22 00:58:45;;;;;;;6.72;3.65;;;;;;;7.22;78.95;93765.81;5003266;28;20018;-84
2023/01/22 01:01:13;;;;;;;6.82;3.00;;;;;;;7.19;78.83;93764.53;5003241;28;20026;-84
2023/01/22 01:03:38;;;;;;;7.00;3.42;;;;;;;7.20;78.34;93767.97;5003244;28;20026;-85
2023/01/22 01:06:17;;;;;;;7.05;3.58;;;;;;;7.20;78.57;93784.66;5003279;28;20022;-84
2023/01/22 01:08:43;;;;;;;8.32;3.75;;;;;;;7.21;78.10;93782.81;5003112;28;20336;-84
2023/01/22 01:11:20;;;;;;;8.27;3.42;;;;;;;7.16;78.28;93786.31;5003341;28;20029;-84
2023/01/22 01:13:46;;;;;;;8.70;3.10;;;;;;;7.15;78.18;93786.63;5002035;28;20029;-84
2023/01/22 01:16:15;;;;;;;7.28;3.83;;;;;;;7.11;78.15;93781.13;5001990;28;20026;-84
2023/01/22 01:18:41;;;;;;;6.35;4.07;;;;;;;7.09;78.25;93793.09;5003089;28;20029;-84
2023/01/22 01:21:07;;;;;;;8.10;3.70;;;;;;;7.11;77.89;93794.38;5003085;28;20026;-84
2023/01/22 01:23:35;;;;;;;10.52;4.97;;;;;;;7.05;78.34;93808.00;5003209;28;20217;-84
2023/01/22 01:26:08;;;;;;;15.05;6.28;;;;;;;6.97;78.30;93804.94;5005947;28;20048;-84
2023/01/22 01:28:36;;;;;;;15.10;6.45;;;;;;;6.93;78.77;93798.66;5006489;28;20033;-84
2023/01/22 01:31:03;;;;;;;12.98;6.40;;;;;;;6.91;78.96;93803.47;5006675;28;20018;-84
2023/01/22 01:33:29;;;;;;;15.73;7.03;;;;;;;6.94;79.24;93802.88;5006616;28;20037;-84
2023/01/22 01:35:59;;;;;;;14.65;7.60;;;;;;;6.95;79.35;93808.97;5006387;28;20224;-83
2023/01/22 01:38:24;;;;;;;14.88;8.05;;;;;;;6.99;79.32;93810.75;5006265;28;20109;-84
2023/01/22 01:40:49;;;;;;;8.30;4.32;;;;;;;6.98;78.72;93813.66;5006672;28;20073;-84
2023/01/22 01:43:15;;;;;;;4.50;3.10;;;;;;;6.92;78.67;93813.00;5006433;28;20046;-82
2023/01/22 01:45:43;;;;;;;7.90;3.88;;;;;;;6.92;78.83;93820.13;5006124;28;20054;-82
2023/01/22 01:48:23;;;;;;;8.00;3.30;;;;;;;6.88;78.83;93825.25;5006178;28;20041;-82
2023/01/22 01:51:22;;;;;;;6.82;3.22;;;;;;;6.93;78.60;93817.19;5006396;28;20041;-82
2023/01/22 01:53:49;;;;;;;7.13;3.15;;;;;;;6.91;78.56;93824.66;5002166;28;20340;-82
2023/01/22 01:56:29;;;;;;;6.45;2.75;;;;;;;6.91;78.96;93822.00;5006201;28;20049;-84
2023/01/22 01:58:59;;;;;;;7.60;2.65;;;;;;;6.92;79.03;93820.13;5006081;28;20026;-83
2023/01/22 02:01:26;;;;;;;4.38;2.30;;;;;;;6.90;78.92;93823.09;5005927;28;20065;-83
2023/01/22 02:03:52;;;;;;;3.90;1.70;;;;;;;6.90;78.43;93815.16;5006151;28;20026;-83
2023/01/22 02:06:18;;;;;;;4.25;2.00;;;;;;;6.87;78.72;93818.34;5006013;28;20022;-83
2023/01/22 02:08:46;;;;;;;4.30;2.22;;;;;;;6.83;78.62;93812.06;5005776;28;20034;-83
2023/01/22 02:11:13;;;;;;;6.93;2.55;;;;;;;6.86;78.57;93800.91;5005845;28;20069;-83
2023/01/22 02:13:45;;;;;;;9.30;2.40;;;;;;;6.85;78.60;93817.88;5005818;28;20089;-83
2023/01/22 02:16:11;;;;;;;;;;;;;;;6.75;77.90;93816.16;5006333;28;20057;-83
2023/01/22 02:18:37;;;;;;;3.83;1.40;;;;;;;6.68;77.82;93831.66;5005830;28;19905;-82
2023/01/22 02:21:03;;;;;;;5.30;1.67;;;;;;;6.70;78.11;93818.13;5005805;28;20022;-82
2023/01/22 02:23:31;;;;;;;6.45;2.08;;;;;;;6.71;78.61;93827.63;5005715;28;20125;-83
2023/01/22 02:25:58;;;;;;;5.22;2.38;;;;;;;6.71;78.93;93819.69;5005517;28;20220;-84
2023/01/22 02:28:24;;;;;;;7.93;2.45;;;;;;;6.74;78.84;93819.91;5005694;28;20202;-83
2023/01/22 02:30:50;;;;;;;4.88;2.20;;;;;;;6.84;78.74;93824.25;5005670;28;20030;-84
2023/01/22 02:33:15;;;;;;;7.15;2.92;;;;;;;6.82;78.47;93821.88;5005632;28;20029;-84
2023/01/22 02:35:41;;;;;;;6.85;2.80;;;;;;;6.89;78.79;93816.22;5003793;28;20077;-84
2023/01/22 02:38:06;;;;;;;4.80;2.05;;;;;;;6.85;78.82;93823.16;5004780;28;20375;-83
2023/01/22 02:40:32;;;;;;;6.03;1.92;;;;;;;6.80;79.04;93828.56;5004077;28;20030;-83
2023/01/22 02:42:58;;;;;;;6.78;2.15;;;;;;;6.76;79.56;93827.56;5005508;28;20269;-83
2023/01/22 02:45:24;;;;;;;5.43;2.42;;;;;;;6.75;79.62;93833.91;5005482;28;20030;-83
2023/01/22 02:47:49;;;;;;;5.45;2.28;;;;;;;6.77;79.82;93834.41;5005323;28;20273;-83
2023/01/22 02:50:16;;;;;;;6.03;2.45;;;;;;;6.78;79.79;93834.13;5005099;28;20030;-83
2023/01/22 02:52:42;;;;;;;3.13;1.50;;;;;;;6.79;79.66;93832.28;5005147;28;20265;-82
2023/01/22 02:55:08;;;;;;;3.35;1.95;;;;;;;6.80;79.48;93844.44;5004936;28;20030;-82
2023/01/22 02:57:33;;;;;;;3.70;1.80;;;;;;;6.82;79.26;93842.31;5005000;28;20359;-82
2023/01/22 02:59:59;;;;;;;4.57;1.77;;;;;;;6.79;78.97;93840.22;5004943;28;20022;-82
2023/01/22 03:02:25;;;;;;;7.22;1.95;;;;;;;6.78;79.01;93838.66;5004953;28;20068;-82
2023/01/22 03:04:50;;;;;;;8.45;2.25;;;;;;;6.77;79.03;93829.13;5004886;28;20053;-83
2023/01/22 03:07:17;;;;;;;3.92;2.10;;;;;;;6.77;79.58;93814.00;5004761;28;20026;-82
2023/01/22 03:09:43;;;;;;;5.35;1.88;;;;;;;6.81;79.37;93815.00;5004728;28;20049;-82
2023/01/22 03:12:10;;;;;;;2.78;1.63;;;;;;;6.87;78.80;93815.72;5004857;28;20093;-82
2023/01/22 03:22:48;;;;;;;9.82;2.97;;;;;;;6.93;79.35;93822.50;5004752;28;20032;-82
2023/01/22 03:25:13;;;;;;;6.10;2.83;;;;;;;6.89;79.44;93820.72;5004519;28;20034;-83
2023/01/22 03:28:07;;;;;;;8.88;2.97;;;;;;;6.86;78.83;93840.66;5004345;28;20098;-83
2023/01/22 03:30:24;;;;;;;6.25;2.55;;;;;;;6.76;78.54;93852.19;5004201;28;20034;-83
2023/01/22 03:32:49;;;;;;;5.53;2.38;;;;;;;6.76;78.25;93848.75;5004412;28;20112;-83
2023/01/22 03:35:15;;;;;;;4.60;2.55;;;;;;;6.67;78.34;93838.00;5004274;28;20037;-86
2023/01/22 03:37:40;;;;;;;6.57;2.42;;;;;;;6.58;78.45;93839.75;5004198;28;20117;-86
2023/01/22 03:40:06;;;;;;;3.50;2.00;;;;;;;6.52;78.48;93832.97;5004283;28;20022;-85
2023/01/22 03:42:31;;;;;;;10.68;2.60;;;;;;;6.50;78.54;93843.84;5004147;28;20065;-85
2023/01/22 03:44:57;;;;;;;5.22;2.50;;;;;;;6.45;78.37;93837.81;5004190;28;21475;-86
2023/01/22 03:47:22;;;;;;;9.05;2.60;;;;;;;6.40;78.51;93839.47;5003972;28;20026;-85
2023/01/22 03:49:48;;;;;;;10.52;3.30;;;;;;;6.45;78.39;93838.59;5004216;28;20098;-86
2023/01/22 03:52:13;;;;;;;7.45;3.05;;;;;;;6.42;78.53;93847.13;5003947;28;20534;-86
2023/01/22 03:54:38;;;;;;;8.20;3.60;;;;;;;6.44;78.68;93842.34;5004016;28;20022;-85
2023/01/22 03:57:04;;;;;;;13.52;4.88;;;;;;;6.47;78.63;93847.03;5002758;28;20220;-85
2023/01/22 03:59:29;;;;;;;11.82;4.68;;;;;;;6.43;78.96;93841.56;5003952;28;20022;-85
2023/01/22 04:01:55;;;;;;;9.75;3.60;;;;;;;6.40;79.12;93841.34;5003837;28;20022;-86
2023/01/22 04:04:20;;;;;;;8.20;3.33;;;;;;;6.40;79.15;93847.41;5004080;28;20028;-84
2023/01/22 04:06:46;;;;;;;6.30;3.15;;;;;;;6.36;78.87;93846.41;5003953;28;20022;-83
2023/01/22 04:09:12;;;;;;;12.55;3.28;;;;;;;6.29;79.16;93856.59;5002725;28;20335;-85
2023/01/22 04:11:37;;;;;;;9.40;3.20;;;;;;;6.29;79.35;93845.19;5003844;28;20145;-84
2023/01/22 04:14:03;;;;;;;5.45;3.15;;;;;;;6.35;79.27;93854.63;5003677;28;20022;-85
2023/01/22 04:16:28;;;;;;;8.80;3.33;;;;;;;6.35;79.48;93849.34;5003716;28;20022;-84
2023/01/22 04:18:54;;;;;;;12.27;5.55;;;;;;;6.35;79.91;93857.28;5003827;28;20194;-85
2023/01/22 04:21:19;;;;;;;12.70;6.53;;;;;;;6.39;80.26;93855.63;5003813;28;20026;-86
2023/01/22 04:23:45;;;;;;;14.45;6.75;;;;;;;6.38;80.36;93854.84;5003659;28;20335;-84
2023/01/22 04:26:10;;;;;;;10.93;4.78;;;;;;;6.38;80.59;93864.66;5003452;28;20029;-83
2023/01/22 04:28:36;;;;;;;14.45;5.15;;;;;;;6.36;80.83;93864.94;5003410;28;20260;-84
2023/01/22 04:31:03;;;;;;;11.50;3.65;;;;;;;6.37;80.42;93874.47;5003498;28;20022;-83
2023/01/22 04:33:28;;;;;;;8.60;3.58;;;;;;;6.33;80.06;93877.94;5003529;28;20068;-83
2023/01/22 04:35:54;;;;;;;4.90;2.72;;;;;;;6.32;79.78;93879.03;5003467;28;20054;-82
2023/01/22 04:38:20;;;;;;;6.88;2.75;;;;;;;6.32;79.64;93889.63;5003515;28;20101;-84
2023/01/22 04:40:45;;;;;;;5.45;2.28;;;;;;;6.30;79.31;93897.84;5003504;28;20022;-84
2023/01/22 04:43:11;;;;;;;5.50;2.35;;;;;;;6.32;79.13;93893.06;5002140;28;20022;-83
2023/01/22 04:45:36;;;;;;;8.63;3.25;;;;;;;6.33;78.64;93889.34;5003340;28;20300;-84
2023/01/22 04:48:02;;;;;;;12.43;3.30;;;;;;;6.33;78.58;93899.13;5003519;28;20026;-84
2023/01/22 04:50:30;;;;;;;8.65;3.25;;;;;;;6.26;78.25;93891.53;5003370;28;20023;-84
2023/01/22 04:52:56;;;;;;;7.85;3.05;;;;;;;6.26;78.31;93896.84;5003384;28;20068;-84
2023/01/22 04:55:23;;;;;;;9.35;3.13;;;;;;;6.28;78.01;93909.78;5003397;28;20023;-84
2023/01/22 04:57:48;;;;;;;8.88;3.38;;;;;;;6.25;77.63;93902.41;5003163;28;20022;-84
2023/01/22 05:00:14;;;;;;;12.65;3.15;;;;;;;6.25;77.72;93913.00;5005293;28;20228;-85
2023/01/22 05:02:40;;;;;;;9.60;3.67;;;;;;;6.25;77.53;93907.69;5007158;28;20064;-83
2023/01/22 05:05:07;;;;;;;8.50;3.72;;;;;;;6.24;77.40;93909.56;5007265;28;20253;-85
2023/01/22 05:07:33;;;;;;;9.68;3.75;;;;;;;6.22;77.23;93914.34;5006969;28;20061;-84
2023/01/22 05:09:59;;;;;;;11.43;3.97;;;;;;;6.17;77.34;93917.88;5006859;28;20018;-84
2023/01/22 05:12:24;;;;;;;5.53;3.20;;;;;;;6.15;77.13;93924.53;5005793;28;20030;-84
2023/01/22 05:14:50;;;;;;;6.22;2.50;;;;;;;6.04;76.86;93921.19;5007108;28;20372;-84
2023/01/22 05:17:16;;;;;;;7.85;2.20;;;;;;;5.92;77.55;93931.34;5006669;28;20045;-85
2023/01/22 05:19:41;;;;;;;5.18;2.40;;;;;;;5.76;78.00;93939.47;5006877;28;20045;-86
2023/01/22 05:22:07;;;;;;;2.97;2.10;;;;;;;5.61;79.18;93939.59;5006846;28;20026;-85
2023/01/22 05:24:33;;;;;;;5.03;2.15;;;;;;;5.53;79.83;93945.50;5006582;28;20026;-86
2023/01/22 05:26:58;;;;;;;4.47;2.03;;;;;;;5.49;80.35;93952.41;5006486;28;20029;-86
2023/01/22 05:29:25;;;;;;;4.35;2.03;;;;;;;5.49;80.62;93955.06;5006680;28;20028;-84
2023/01/22 05:31:55;;;;;;;6.63;2.58;;;;;;;5.45;80.74;93952.16;5006752;28;20073;-84
2023/01/22 05:34:21;;;;;;;5.18;2.30;;;;;;;5.45;81.02;93964.59;5006737;28;20022;-84
2023/01/22 05:36:46;;;;;;;6.55;2.55;;;;;;;5.33;81.20;93968.41;5006202;28;20060;-84
2023/01/22 05:39:12;;;;;;;13.43;3.53;;;;;;;5.32;81.36;93971.31;5006388;28;20026;-83
2023/01/22 05:41:38;;;;;;;9.50;4.40;;;;;;;5.33;81.26;93979.00;5005320;28;20061;-83
2023/01/22 05:44:04;;;;;;;5.88;2.90;;;;;;;5.30;81.47;93982.16;5006366;28;20026;-83
2023/01/22 05:46:30;;;;;;;8.65;2.92;;;;;;;5.32;81.58;93981.91;5006394;28;20088;-83
2023/01/22 05:48:56;;;;;;;7.00;2.05;;;;;;;5.31;81.82;93982.94;5006117;28;20295;-84
2023/01/22 05:51:22;;;;;;;5.63;2.03;;;;;;;5.35;81.77;93990.06;5006187;28;20022;-84
2023/01/22 05:53:47;;;;;;;4.95;2.20;;;;;;;5.39;81.56;93996.38;5007319;28;20209;-84
2023/01/22 05:56:13;;;;;;;7.72;2.75;;;;;;;5.44;81.30;93995.53;5006771;28;20559;-85
2023/01/22 05:58:38;;;;;;;6.40;2.15;;;;;;;5.48;81.01;93993.94;5006384;28;20019;-85
2023/01/22 06:01:04;;;;;;;8.52;2.63;;;;;;;5.53;80.88;93999.16;5006258;28;20089;-85
2023/01/22 06:03:29;;;;;;;8.57;2.40;;;;;;;5.51;80.90;94011.88;5006307;28;20026;-85
2023/01/22 06:06:04;;;;;;;8.32;2.55;;;;;;;5.55;81.03;94022.69;5006067;28;20221;-84
2023/01/22 06:08:29;;;;;;;8.13;2.28;;;;;;;5.59;80.91;94023.72;5005969;28;20097;-85
2023/01/22 06:11:15;;;;;;;7.75;3.90;;;;;;;5.64;80.88;94023.69;5005770;28;20328;-84
2023/01/22 06:13:41;;;;;;;11.48;4.60;;;;;;;5.66;80.88;94032.13;5005617;28;20022;-84
2023/01/22 06:16:08;;;;;;;9.68;3.97;;;;;;;5.68;80.64;94040.56;5005785;28;20097;-83
2023/01/22 06:18:34;;;;;;;9.15;4.20;;;;;;;5.70;80.98;94037.63;5005817;28;20025;-85
2023/01/22 06:21:01;;;;;;;9.98;4.70;;;;;;;5.65;81.45;94035.81;5005674;28;20023;-84
2023/01/22 06:23:28;;;;;;;11.45;5.43;;;;;;;5.56;81.66;94037.50;5005532;28;20029;-85
2023/01/22 06:25:56;;;;;;;10.82;5.60;;;;;;;5.53;82.03;94045.97;5004584;28;20058;-85
2023/01/22 06:28:22;;;;;;;17.35;6.80;;;;;;;5.53;82.12;94051.25;5005750;28;20022;-85
2023/01/22 06:30:48;;;;;;;10.02;5.93;;;;;;;5.46;82.56;94053.44;5005769;28;20093;-86
2023/01/22 06:33:14;;;;;;;13.05;6.60;;;;;;;5.49;82.62;94053.66;5005581;28;20041;-86
2023/01/22 06:35:40;;;;;;;17.92;6.43;;;;;;;5.52;83.19;94039.13;5005393;28;20018;-85
2023/01/22 06:38:05;;;;;;;15.32;6.90;;;;;;;5.54;83.08;94050.19;5005380;28;20225;-84
2023/01/22 06:40:31;;;;;;;14.30;6.50;;;;;;;5.56;82.99;94053.34;5004135;28;20026;-84
2023/01/22 06:43:00;;;;;;;15.55;6.70;;;;;;;5.60;83.32;94062.31;5005497;28;20045;-84
2023/01/22 06:45:26;;;;;;;13.50;6.85;;;;;;;5.68;83.29;94056.44;5005156;28;20033;-84
2023/01/22 06:47:51;;;;;;;12.40;5.93;;;;;;;5.78;83.22;94064.28;5005334;28;20026;-82
2023/01/22 06:50:17;;;;;;;11.65;5.68;;;;;;;5.88;82.59;94066.03;5005255;28;20317;-85
2023/01/22 06:52:43;;;;;;;13.43;6.47;;;;;;;5.97;82.37;94076.84;5005399;28;20026;-84
2023/01/22 06:55:09;;;;;;;11.10;5.78;;;;;;;6.03;81.65;94071.22;5005073;28;20038;-86
2023/01/22 06:57:34;;;;;;;19.77;6.53;;;;;;;6.10;81.80;94092.06;5005176;28;20057;-86
2023/01/22 06:59:59;;;;;;;15.70;7.53;;;;;;;6.19;81.49;94082.47;5005189;28;20145;-87
2023/01/22 07:02:25;;;;;;;16.10;7.07;;;;;;;6.27;81.15;94085.56;5005018;28;20022;-86
2023/01/22 07:04:50;;;;;;;16.77;8.38;;;;;;;6.31;80.60;94094.50;5005308;28;20030;-84
2023/01/22 07:07:16;;;;;;;17.73;8.85;;;;;;;6.36;80.79;94097.13;5004856;28;20046;-87
2023/01/22 07:09:41;;;;;;;19.35;10.25;;;;;;;6.39;80.70;94102.66;5005247;28;20048;-88
2023/01/22 07:12:07;;;;;;;20.33;9.55;;;;;;;6.46;80.74;94102.31;5005109;28;20022;-86
2023/01/22 07:14:33;;;;;;;19.60;9.38;;;;;;;6.53;80.78;94099.31;5004787;28;20026;-85
2023/01/22 07:16:58;;;;;;;16.02;9.45;;;;;;;6.51;80.69;94096.94;5004816;28;20260;-84
2023/01/22 07:19:24;;;;;;;24.88;9.77;;;;;;;6.61;80.90;94104.81;5004747;28;20277;-85
2023/01/22 07:21:49;;;;;;;19.77;10.57;;;;;;;6.71;81.07;94105.75;5004534;28;20050;-86
2023/01/22 07:24:15;;;;;;;16.42;10.02;;;;;;;6.81;80.82;94106.44;5004640;28;20081;-84
2023/01/22 07:26:42;;;;;;;17.63;10.48;;;;;;;6.93;80.69;94107.91;5004775;28;20022;-85
2023/01/22 07:29:08;;;;;;;26.38;13.07;;;;;;;7.01;80.00;94102.75;5003198;28;20260;-85
2023/01/22 07:31:34;;;;;;;26.60;13.57;;;;;;;7.05;79.70;94102.19;5004439;28;20022;-84
2023/01/22 07:34:01;;;;;;;26.25;12.32;;;;;;;7.11;79.33;94104.47;5004266;28;20280;-83
2023/01/22 07:36:26;;;;;;;23.27;12.52;;;;;;;7.07;78.98;94100.03;5004158;28;20065;-81
2023/01/22 07:38:52;;;;;;;22.33;11.02;;;;;;;7.02;79.47;94107.00;5004427;28;20017;-82
2023/01/22 07:41:17;;;;;;;21.00;11.68;;;;;;;6.93;79.91;94103.38;5004195;28;20014;-83
2023/01/22 07:43:42;;;;;;;27.52;12.50;;;;;;;6.91;80.85;94108.16;5003995;28;20049;-84
2023/01/22 07:46:08;;;;;;;23.15;11.50;;;;;;;6.94;80.93;94112.91;5004147;28;20014;-82
2023/01/22 07:48:33;;;;;;;22.45;12.90;;;;;;;6.97;81.21;94107.03;5003863;28;20022;-83
2023/01/22 07:51:00;;;;;;;15.15;9.68;;;;;;;7.06;80.55;94106.41;5002795;28;20015;-83
2023/01/22 07:53:26;;;;;;;23.52;8.35;;;;;;;7.15;79.59;94110.00;5003807;28;20025;-84
2023/01/22 07:55:51;;;;;;;19.27;8.20;;;;;;;7.24;78.76;94105.63;5004182;28;20026;-84
2023/01/22 07:58:17;;;;;;;16.33;8.35;;;;;;;7.34;77.63;94107.38;5004556;28;20026;-84
2023/01/22 08:00:42;;;;;;;13.55;7.07;;;;;;;7.44;77.40;94104.56;5003285;28;20030;-83
2023/01/22 08:03:09;;;;;;;17.73;7.90;;;;;;;7.58;77.47;94107.31;5004355;28;20304;-84
2023/01/22 08:05:38;;;;;;;19.00;7.63;;;;;;;7.69;77.63;94106.06;5004000;28;20018;-83
2023/01/22 08:08:04;;;;;;;14.90;7.38;;;;;;;7.86;77.40;94112.72;5003881;28;20053;-83
2023/01/22 08:10:30;;;;;;;12.77;5.63;;;;;;;8.03;76.07;94103.16;5003872;28;20022;-83
2023/01/22 08:12:55;;;;;;;12.20;5.38;;;;;;;8.15;75.73;94110.66;5003753;28;20089;-84
2023/01/22 08:15:21;;;;;;;8.82;4.85;;;;;;;8.29;75.20;94112.56;5002642;28;20089;-84
2023/01/22 08:17:54;;;;;;;14.00;5.53;;;;;;;8.38;74.85;94116.91;5003688;28;20020;-82
2023/01/22 08:20:20;;;;;;;17.05;7.60;;;;;;;8.49;74.92;94117.56;5003893;28;20045;-81
2023/01/22 08:23:22;;;;;;;16.17;7.35;;;;;;;8.58;75.29;94126.41;5003666;28;20057;-80
2023/01/22 08:25:47;;;;;;;16.95;9.15;;;;;;;8.69;75.86;94124.38;5000587;28;20049;-80
2023/01/22 08:28:13;;;;;;;19.20;7.95;;;;;;;8.80;75.19;94122.31;5003459;28;20025;-80
2023/01/22 08:30:38;;;;;;;19.13;8.20;;;;;;;8.90;75.02;94130.09;5003399;28;20038;-81
2023/01/22 08:33:04;;;;;;;16.42;9.00;;;;;;;9.00;75.17;94135.19;5002402;28;20026;-81
2023/01/22 08:35:30;;;;;;;18.65;9.77;;;;;;;9.09;75.00;94129.19;5005784;28;20022;-80
2023/01/22 08:38:00;;;;;;;21.17;10.18;;;;;;;9.19;75.88;94132.44;5007186;28;20043;-74
2023/01/22 08:40:25;;;;;;;15.20;8.85;;;;;;;9.29;74.74;94131.44;5007257;28;20030;-74
2023/01/22 08:42:52;;;;;;;20.35;9.25;;;;;;;9.33;73.86;94123.66;5007388;28;20022;-74
2023/01/22 08:45:17;;;;;;;18.98;9.18;;;;;;;9.39;73.81;94128.56;5007060;28;20025;-74
2023/01/22 08:47:43;;;;;;;18.48;9.07;;;;;;;9.41;74.30;94133.59;5006920;28;20022;-74
2023/01/22 08:50:09;;;;;;;18.23;10.60;;;;;;;9.40;74.37;94132.81;5006919;28;20037;-74
2023/01/22 08:52:34;;;;;;;19.38;10.27;;;;;;;9.43;74.89;94134.84;5007215;28;20033;-75
2023/01/22 08:55:00;;;;;;;18.10;10.07;;;;;;;9.47;75.10;94139.59;5006986;28;20320;-75
2023/01/22 08:57:25;;;;;;;22.27;12.73;;;;;;;9.46;74.89;94135.34;5006983;28;20018;-75
2023/01/22 08:59:51;;;;;;;23.00;11.10;;;;;;;9.49;74.78;94129.44;5006953;28;20018;-83
2023/01/22 09:02:16;;;;;;;22.17;12.88;;;;;;;9.48;73.49;94133.97;5006972;28;20018;-85
2023/01/22 09:04:41;;;;;;;25.80;13.63;;;;;;;9.50;72.94;94137.09;5007206;28;20015;-82
2023/01/22 09:07:07;;;;;;;21.58;12.38;;;;;;;9.50;72.81;94131.78;5007002;28;20018;-81
2023/01/22 09:09:33;;;;;;;24.33;12.95;;;;;;;9.53;72.85;94141.06;5007097;28;20025;-81
2023/01/22 09:11:58;;;;;;;22.42;13.18;;;;;;;9.56;72.76;94129.81;5006846;28;20097;-81
2023/01/22 09:14:24;;;;;;;27.13;14.43;;;;;;;9.60;72.90;94136.09;5007022;28;20018;-81
2023/01/22 09:16:49;;;;;;;29.77;15.25;;;;;;;9.66;72.69;94136.78;5007119;28;20026;-81
2023/01/22 09:19:15;;;;;;;33.47;14.90;;;;;;;9.68;72.73;94129.28;5006848;28;20022;-81
2023/01/22 09:21:40;;;;;;;22.05;12.15;;;;;;;9.65;72.24;94133.34;5006891;28;20339;-81
2023/01/22 09:24:06;;;;;;;24.00;12.90;;;;;;;9.56;72.23;94133.25;5006692;28;20042;-79
2023/01/22 09:26:32;;;;;;;25.38;13.98;;;;;;;9.58;72.11;94131.06;5006300;28;20045;-80
2023/01/22 09:28:59;;;;;;;22.20;12.77;;;;;;;9.57;72.17;94121.53;5005350;28;20090;-80
2023/01/22 09:31:25;;;;;;;28.83;14.23;;;;;;;9.57;71.91;94126.84;5006554;28;20022;-80
2023/01/22 09:33:53;;;;;;;23.30;13.55;;;;;;;9.54;72.37;94137.31;5006361;28;20023;-80
2023/01/22 09:36:19;;;;;;;22.42;12.80;;;;;;;9.53;72.13;94125.09;5005761;28;20026;-81
2023/01/22 09:38:44;;;;;;;23.52;12.82;;;;;;;9.52;72.29;94129.63;5006242;28;20029;-80
2023/01/22 09:41:27;;;;;;;24.02;10.98;;;;;;;9.50;72.65;94134.44;5006353;28;20021;-82
2023/01/22 09:44:16;;;;;;;21.90;11.27;;;;;;;9.53;72.45;94130.41;5006341;28;20097;-80
2023/01/22 09:46:48;;;;;;;18.83;10.32;;;;;;;9.58;72.95;94132.97;5005902;28;20060;-80
2023/01/22 09:49:15;;;;;;;;;;;;;;;9.59;73.00;94124.69;5006508;28;20029;-80
2023/01/22 09:51:44;;;;;;;19.67;10.90;;;;;;;9.56;73.20;94117.28;5006040;28;20103;-87
2023/01/22 09:54:14;;;;;;;18.02;9.80;;;;;;;9.61;72.71;94127.06;5006107;28;20023;-81
2023/01/22 09:56:43;;;;;;;19.52;9.10;;;;;;;9.64;71.96;94126.44;5006015;28;20034;-81
2023/01/22 09:59:20;;;;;;;15.25;8.05;;;;;;;9.68;71.61;94121.31;5006072;28;20023;-80
2023/01/22 10:01:51;;;;;;;13.32;7.97;;;;;;;9.74;70.98;94118.22;5005968;28;20052;-79
2023/01/22 10:04:41;;;;;;;11.98;5.60;;;;;;;9.86;70.33;94120.34;5005750;28;20030;-80
2023/01/22 10:07:23;;;;;;;10.02;4.88;;;;;;;9.95;68.47;94112.44;5005674;28;20027;-81
2023/01/22 10:09:51;;;;;;;;;;;;;;;10.08;67.04;94124.13;5006148;28;20026;-82
2023/01/22 10:12:16;;;;;;;6.97;3.33;;;;;;;10.17;67.21;94117.75;5005900;28;19917;-80
2023/01/22 10:14:43;;;;;;;5.95;3.10;;;;;;;10.36;66.85;94114.13;5005718;28;20030;-82
2023/01/22 10:17:18;;;;;;;6.03;3.15;;;;;;;10.55;65.75;94112.06;5005908;28;20065;-81
2023/01/22 10:19:49;;;;;;;5.93;3.13;;;;;;;10.70;65.57;94113.53;5004397;28;20169;-81
2023/01/22 10:22:21;;;;;;;6.10;2.60;;;;;;;10.87;64.78;94112.00;5005411;28;20046;-81
2023/01/22 10:24:46;;;;;;;7.03;2.80;;;;;;;11.03;64.66;94118.50;5004553;28;20037;-80
2023/01/22 10:27:22;;;;;;;13.85;6.50;;;;;;;11.17;65.85;94110.38;5004312;28;20228;-80
2023/01/22 10:30:19;;;;;;;14.60;7.20;;;;;;;11.31;66.78;94116.38;5004269;28;20029;-79
2023/01/22 10:32:56;;;;;;;16.15;8.75;;;;;;;11.49;66.59;94114.53;5004667;28;20088;-81
2023/01/22 10:35:23;;;;;;;19.85;8.60;;;;;;;11.59;66.42;94116.91;5005255;28;20030;-79
2023/01/22 10:37:52;;;;;;;13.43;5.15;;;;;;;11.69;64.97;94120.38;5005346;28;20045;-79
2023/01/22 10:40:36;;;;;;;8.23;4.10;;;;;;;11.78;64.24;94121.16;5005501;28;20247;-80
2023/01/22 10:43:11;;;;;;;11.35;4.05;;;;;;;11.84;63.71;94115.38;5005157;28;20022;-81
2023/01/22 10:45:37;;;;;;;12.82;5.03;;;;;;;11.91;63.43;94112.25;5003999;28;20108;-82
2023/01/22 10:48:14;;;;;;;7.75;4.00;;;;;;;11.98;63.31;94122.44;5004761;28;20037;-82
2023/01/22 10:50:41;;;;;;;10.93;4.40;;;;;;;12.04;63.33;94118.53;5005029;28;20033;-82
2023/01/22 10:53:33;;;;;;;10.85;4.78;;;;;;;12.09;63.05;94120.25;5005522;28;20046;-81
2023/01/22 10:56:01;;;;;;;10.85;4.45;;;;;;;12.11;62.41;94112.69;5005603;28;20026;-81
2023/01/22 10:58:33;;;;;;;10.43;5.75;;;;;;;12.16;63.17;94113.31;5003566;28;20049;-81
2023/01/22 11:01:21;;;;;;;9.48;5.78;;;;;;;12.14;62.88;94120.88;5004920;28;20019;-81
2023/01/22 11:03:46;;;;;;;8.05;4.28;;;;;;;12.14;63.01;94122.75;5004870;28;20049;-82
2023/01/22 11:06:24;;;;;;;8.45;3.85;;;;;;;12.19;62.88;94127.94;5003805;28;20316;-80
2023/01/22 11:09:22;;;;;;;11.32;3.53;;;;;;;12.21;62.03;94121.19;5003650;28;20228;-82
2023/01/22 11:11:59;;;;;;;11.88;4.05;;;;;;;12.29;62.51;94129.50;4993225;28;20030;-81
2023/01/22 11:14:31;;;;;;;10.70;3.95;;;;;;;12.31;61.27;94116.59;5004774;28;20210;-81
2023/01/22 11:17:03;;;;;;;11.55;3.92;;;;;;;12.31;61.50;94127.28;5004637;28;20029;-81
2023/01/22 11:19:49;;;;;;;16.00;5.03;;;;;;;12.33;61.14;94125.88;5004179;28;20064;-80
2023/01/22 11:22:23;;;;;;;11.75;4.10;;;;;;;12.31;60.56;94125.41;5004600;28;20029;-84
2023/01/22 11:24:49;;;;;;;7.47;4.13;;;;;;;12.22;61.02;94120.06;5004542;28;20057;-80
2023/01/22 11:27:42;;;;;;;8.10;4.10;;;;;;;12.27;60.95;94121.00;5004130;28;20038;-81
2023/01/22 11:30:30;;;;;;;9.02;3.85;;;;;;;12.21;61.90;94110.50;5003276;28;20080;-84
2023/01/22 11:33:05;;;;;;;10.93;4.05;;;;;;;12.24;61.31;94120.53;5004429;28;20213;-86
2023/01/22 11:35:43;;;;;;;8.52;3.85;;;;;;;12.24;60.86;94115.19;5002185;28;20014;-86
2023/01/22 11:38:08;;;;;;;13.32;5.35;;;;;;;12.29;59.89;94126.81;5002262;28;20197;-86
2023/01/22 11:40:40;;;;;;;5.82;2.70;;;;;;;12.28;59.32;94125.28;5003231;28;20033;-86
2023/01/22 11:43:21;;;;;;;8.82;3.65;;;;;;;12.26;59.20;94122.13;5003142;28;20029;-86
2023/01/22 11:45:46;;;;;;;11.40;4.70;;;;;;;12.20;59.26;94116.94;5004075;28;20239;-86
2023/01/22 11:48:18;;;;;;;10.45;4.43;;;;;;;12.13;59.31;94116.66;5004171;28;20033;-86